KCTY

Details ICAO KCTY (CTY)
Name Cross City
Region United States
Timezone America/New_York (UTC-5.0)
Plans Departing 5
Arriving 11
Stats Elevation 42 ft / 13 m (AMSL)
Location 29.635517° -83.104750°
Runways 2
Magnetic Variation 5.424° W
Sunrise 2017-12-18 12:23:12 UTC / 2017-12-18 07:23:12 Local
Sunset 2017-12-18 22:37:47 UTC / 2017-12-18 17:37:47 Local
Advertisement - Login to hide

Runways

ID Width Length Bearing (true) Bearing (mag) Surface Threshold Offset Overrun Length
04 75 ft / 23 m 5,011 ft / 1,527 m 43.47° 48.89° Asphalt 0 ft / 0 m 0 ft / 0 m
13 100 ft / 30 m 5,005 ft / 1,526 m 133.76° 139.18° Asphalt 0 ft / 0 m 0 ft / 0 m
22 75 ft / 23 m 5,011 ft / 1,527 m 223.48° 228.90° Asphalt 0 ft / 0 m 0 ft / 0 m
31 100 ft / 30 m 5,005 ft / 1,526 m 313.76° 319.18° Asphalt 0 ft / 0 m 0 ft / 0 m

Map

Weather


0- 5 10 15 20 25 30 35+ Temperature / ° C

Clouds and Precipitation
Forecast for 2017-12-18 18:00 UTC. Updated 2 hours ago

Ground ~20,000 ft ~40,000 ft Winds

METAR

KCTY 181635Z AUTO 22007KT 10SM BKN009 OVC046 23/21 A3028 RMK AO2 T02290210

TAF

Not found

Frequencies

Unicom 122.80 MHz CTAF/UNICOM
Warning: Do not use this data for real-world aviation or navigation. No guarantee of current accuracy is given.